createdAt,value
2022-10-18T00:00:14.947Z,9.37
2022-10-18T00:02:43.552Z,11.80
2022-10-18T00:05:12.167Z,10.18
2022-10-18T00:07:40.608Z,8.55
2022-10-18T00:10:10.700Z,10.90
2022-10-18T00:12:40.049Z,13.67
2022-10-18T00:15:12.667Z,8.73
2022-10-18T00:17:41.605Z,10.55
2022-10-18T00:20:11.764Z,8.00
2022-10-18T00:22:42.382Z,13.00
2022-10-18T00:25:11.625Z,11.13
2022-10-18T00:27:40.129Z,10.05
2022-10-18T00:30:11.398Z,8.50
2022-10-18T00:32:41.547Z,10.48
2022-10-18T00:35:11.290Z,11.30
2022-10-18T00:37:39.738Z,9.70
2022-10-18T00:40:10.135Z,10.75
2022-10-18T00:42:39.805Z,10.98
2022-10-18T00:45:20.325Z,12.20
2022-10-18T00:47:56.536Z,9.88
2022-10-18T00:50:27.121Z,9.27
2022-10-18T00:53:02.207Z,11.60
2022-10-18T00:55:34.337Z,13.50
2022-10-18T00:58:03.941Z,11.98
2022-10-18T01:00:34.904Z,10.98
2022-10-18T01:03:04.066Z,9.43
2022-10-18T01:05:33.409Z,8.10
2022-10-18T01:08:42.833Z,8.10
2022-10-18T01:11:38.997Z,13.27
2022-10-18T01:14:26.562Z,8.18
2022-10-18T01:17:05.031Z,9.97
2022-10-18T01:20:03.906Z,11.70
2022-10-18T01:22:39.015Z,7.63
2022-10-18T01:25:30.882Z,7.28
2022-10-18T01:28:13.553Z,9.05
2022-10-18T01:30:53.423Z,10.17
2022-10-18T01:33:31.756Z,9.20
2022-10-18T01:36:08.911Z,9.85
2022-10-18T01:38:40.445Z,8.70
2022-10-18T01:41:15.613Z,12.07
2022-10-18T01:43:47.999Z,10.70
2022-10-18T01:46:24.230Z,9.38
2022-10-18T01:48:56.403Z,8.48
2022-10-18T01:51:27.496Z,12.02
2022-10-18T01:53:56.645Z,8.00
2022-10-18T01:56:39.331Z,9.20
2022-10-18T01:59:45.144Z,8.82
2022-10-18T02:02:32.293Z,8.25
2022-10-18T02:05:11.769Z,8.20
2022-10-18T02:07:55.293Z,11.80
2022-10-18T02:10:42.571Z,9.27
2022-10-18T02:13:14.490Z,8.18
2022-10-18T02:15:48.604Z,12.27
2022-10-18T02:18:26.074Z,9.82
2022-10-18T02:20:56.309Z,7.40
2022-10-18T02:26:17.116Z,8.45
2022-10-18T02:28:47.160Z,10.43
2022-10-18T02:31:22.244Z,7.72
2022-10-18T02:33:59.732Z,11.93
2022-10-18T02:36:34.599Z,11.47
2022-10-18T02:39:08.775Z,9.07
2022-10-18T02:41:37.683Z,10.48
2022-10-18T02:44:06.388Z,10.05
2022-10-18T02:46:35.932Z,6.82
2022-10-18T02:49:05.807Z,8.03
2022-10-18T02:51:34.570Z,12.77
2022-10-18T02:54:03.086Z,14.02
2022-10-18T02:56:31.851Z,7.82
2022-10-18T02:59:00.280Z,10.07
2022-10-18T03:01:28.999Z,8.77
2022-10-18T03:03:57.482Z,8.98
2022-10-18T03:06:27.533Z,10.85
2022-10-18T03:08:56.036Z,6.68
2022-10-18T03:11:25.307Z,11.70
2022-10-18T03:13:53.776Z,7.47
2022-10-18T03:16:22.518Z,7.03
2022-10-18T03:18:50.956Z,8.43
2022-10-18T03:21:19.778Z,25.58
2022-10-18T03:23:49.848Z,10.05
2022-10-18T03:26:18.346Z,11.40
2022-10-18T03:28:47.074Z,8.25
2022-10-18T03:31:15.576Z,11.77
2022-10-18T03:33:44.047Z,6.68
2022-10-18T03:36:12.998Z,8.27
2022-10-18T03:38:41.677Z,6.63
2022-10-18T03:41:11.535Z,8.43
2022-10-18T03:43:40.036Z,7.68
2022-10-18T03:46:08.584Z,8.55
2022-10-18T03:48:37.291Z,8.13
2022-10-18T03:51:06.122Z,8.20
2022-10-18T03:53:34.833Z,9.43
2022-10-18T03:56:03.328Z,8.98
2022-10-18T04:01:02.723Z,9.98
2022-10-18T04:03:31.190Z,7.30
2022-10-18T04:06:00.822Z,9.93
2022-10-18T04:08:29.549Z,7.30
2022-10-18T04:10:58.043Z,8.35
2022-10-18T04:13:26.846Z,5.82
2022-10-18T04:15:56.890Z,7.93
2022-10-18T04:18:25.660Z,8.65
2022-10-18T04:20:54.371Z,10.18
2022-10-18T04:23:22.813Z,8.15
2022-10-18T04:25:51.293Z,12.52
2022-10-18T04:28:19.834Z,7.83
2022-10-18T04:30:52.206Z,16.20
2022-10-18T04:33:22.528Z,13.63
2022-10-18T04:35:54.343Z,13.40
2022-10-18T04:38:23.006Z,12.55
2022-10-18T04:40:51.995Z,8.10
2022-10-18T04:43:20.739Z,10.48
2022-10-18T04:45:51.391Z,9.50
2022-10-18T04:48:21.484Z,12.27
2022-10-18T04:50:50.956Z,9.40
2022-10-18T04:53:20.446Z,10.03
2022-10-18T04:55:51.838Z,14.10
2022-10-18T04:58:20.916Z,10.65
2022-10-18T05:00:50.835Z,11.65
2022-10-18T05:03:21.197Z,11.82
2022-10-18T05:06:01.358Z,8.57
2022-10-18T05:08:31.696Z,8.65
2022-10-18T05:11:00.716Z,9.00
2022-10-18T05:13:29.584Z,8.82
2022-10-18T05:15:59.722Z,7.93
2022-10-18T05:18:29.725Z,9.37
2022-10-18T05:20:58.699Z,10.20
2022-10-18T05:23:27.397Z,15.57
2022-10-18T05:25:56.036Z,14.13
2022-10-18T05:28:40.982Z,14.38
2022-10-18T05:31:12.734Z,13.83
2022-10-18T05:33:42.597Z,7.43
2022-10-18T05:36:12.048Z,9.25
2022-10-18T05:38:43.427Z,10.10
2022-10-18T05:41:13.240Z,9.20
2022-10-18T05:43:42.611Z,10.77
2022-10-18T05:46:15.519Z,11.48
2022-10-18T05:48:50.644Z,11.50
2022-10-18T05:51:19.799Z,11.43
2022-10-18T05:53:48.331Z,10.48
2022-10-18T05:56:16.832Z,9.47
2022-10-18T05:58:45.322Z,12.90
2022-10-18T06:01:13.995Z,9.10
2022-10-18T06:03:42.473Z,11.55
2022-10-18T06:06:14.235Z,14.98
2022-10-18T06:08:44.764Z,15.60
2022-10-18T06:11:16.187Z,16.15
2022-10-18T06:13:46.804Z,18.17
2022-10-18T06:16:18.459Z,17.67
2022-10-18T06:18:50.128Z,13.27
2022-10-18T06:21:20.823Z,9.93
2022-10-18T06:23:50.800Z,10.38
2022-10-18T06:26:19.857Z,13.05
2022-10-18T06:28:48.867Z,18.63
2022-10-18T06:31:17.929Z,19.85
2022-10-18T06:33:47.018Z,14.83
2022-10-18T06:36:18.574Z,18.20
2022-10-18T06:38:48.406Z,14.38
2022-10-18T06:41:17.978Z,17.55
2022-10-18T06:43:50.779Z,15.77
2022-10-18T06:46:19.205Z,11.07
2022-10-18T06:48:47.955Z,17.77
2022-10-18T06:51:16.748Z,11.80
2022-10-18T06:53:59.091Z,10.75
2022-10-18T06:56:35.727Z,12.35
2022-10-18T06:59:04.787Z,10.77
2022-10-18T07:01:33.336Z,8.63
2022-10-18T07:04:01.922Z,10.25
2022-10-18T07:06:30.376Z,11.10
2022-10-18T07:08:59.055Z,12.73
2022-10-18T07:11:28.725Z,12.40
2022-10-18T07:14:03.420Z,9.60
2022-10-18T07:16:34.289Z,10.27
2022-10-18T07:19:03.064Z,13.52
2022-10-18T07:21:32.474Z,11.77
2022-10-18T07:24:00.953Z,13.67
2022-10-18T07:26:32.396Z,11.02
2022-10-18T07:29:07.817Z,13.73
2022-10-18T07:31:38.492Z,14.77
2022-10-18T07:34:08.698Z,14.15
2022-10-18T07:36:37.180Z,12.50
2022-10-18T07:39:06.358Z,17.60
2022-10-18T07:41:35.499Z,12.90
2022-10-18T07:44:06.092Z,13.05
2022-10-18T07:46:35.102Z,12.20
2022-10-18T07:49:03.573Z,12.00
2022-10-18T07:51:32.882Z,14.50
2022-10-18T07:54:01.464Z,17.55
2022-10-18T07:56:30.103Z,10.18
2022-10-18T07:58:59.160Z,13.30
2022-10-18T08:01:29.087Z,10.03
2022-10-18T08:04:02.117Z,9.60
2022-10-18T08:06:34.712Z,13.63
2022-10-18T08:09:03.447Z,13.27
2022-10-18T08:11:32.555Z,7.65
2022-10-18T08:14:01.151Z,9.97
2022-10-18T08:19:01.171Z,7.18
2022-10-18T08:21:29.873Z,8.90
2022-10-18T08:23:58.379Z,11.05
2022-10-18T08:26:26.852Z,8.63
2022-10-18T08:29:10.392Z,8.65
2022-10-18T08:31:45.393Z,8.15
2022-10-18T08:34:18.718Z,10.32
2022-10-18T08:36:48.226Z,9.90
2022-10-18T08:39:16.886Z,9.87
2022-10-18T08:42:10.716Z,9.07
2022-10-18T08:44:46.772Z,7.75
2022-10-18T08:47:20.647Z,10.18
2022-10-18T08:49:53.244Z,9.70
2022-10-18T08:52:35.157Z,12.77
2022-10-18T08:55:12.605Z,8.70
2022-10-18T08:57:41.113Z,6.57
2022-10-18T09:00:18.266Z,10.43
2022-10-18T09:03:08.465Z,10.35
2022-10-18T09:05:50.668Z,7.77
2022-10-18T09:08:53.585Z,8.30
2022-10-18T09:11:51.477Z,12.32
2022-10-18T09:14:50.432Z,10.43
2022-10-18T09:17:31.349Z,10.40
2022-10-18T09:20:23.010Z,10.00
2022-10-18T09:22:58.152Z,10.55
2022-10-18T09:25:35.152Z,7.82
2022-10-18T09:28:17.732Z,8.73
2022-10-18T09:30:59.933Z,8.52
2022-10-18T09:33:44.199Z,8.83
2022-10-18T09:36:20.492Z,8.45
2022-10-18T09:38:57.243Z,7.55
2022-10-18T09:41:35.494Z,11.10
2022-10-18T09:44:13.807Z,11.40
2022-10-18T09:46:48.942Z,9.50
2022-10-18T09:49:23.361Z,11.90
2022-10-18T09:51:54.807Z,10.98
2022-10-18T09:54:32.641Z,6.85
2022-10-18T09:57:07.642Z,9.27
2022-10-18T09:59:41.535Z,10.87
2022-10-18T10:02:16.380Z,9.23
2022-10-18T10:04:45.722Z,9.43
2022-10-18T10:07:20.701Z,7.00
2022-10-18T10:09:57.797Z,8.55
2022-10-18T10:12:31.595Z,9.43
2022-10-18T10:15:21.277Z,6.88
2022-10-18T10:17:58.848Z,8.85
2022-10-18T10:20:45.746Z,8.63
2022-10-18T10:23:22.801Z,9.43
2022-10-18T10:25:55.562Z,7.53
2022-10-18T10:28:29.179Z,8.98
2022-10-18T10:31:26.707Z,8.30
2022-10-18T10:34:02.946Z,8.15
2022-10-18T10:36:33.140Z,9.18
2022-10-18T10:39:09.681Z,9.13
2022-10-18T10:41:40.992Z,8.85
2022-10-18T10:44:18.588Z,7.10
2022-10-18T10:46:49.752Z,7.82
2022-10-18T10:49:40.576Z,8.23
2022-10-18T10:52:37.110Z,10.33
2022-10-18T10:55:34.149Z,10.48
2022-10-18T10:58:03.362Z,6.95
2022-10-18T11:00:43.880Z,9.82
2022-10-18T11:03:29.213Z,10.45
2022-10-18T11:06:01.026Z,11.73
2022-10-18T11:08:40.026Z,6.45
2022-10-18T11:11:23.075Z,10.68
2022-10-18T11:14:13.526Z,10.23
2022-10-18T11:17:03.100Z,11.43
2022-10-18T11:19:49.960Z,8.93
2022-10-18T11:22:26.096Z,9.40
2022-10-18T11:24:54.661Z,7.97
2022-10-18T11:27:32.301Z,10.35
2022-10-18T11:30:38.324Z,11.35
2022-10-18T11:33:29.605Z,8.50
2022-10-18T11:36:13.479Z,10.10
2022-10-18T11:38:56.271Z,9.23
2022-10-18T11:41:38.416Z,7.35
2022-10-18T11:44:24.551Z,7.05
2022-10-18T11:47:05.464Z,10.07
2022-10-18T11:49:57.197Z,9.75
2022-10-18T11:52:38.916Z,9.30
2022-10-18T11:55:27.684Z,8.25
2022-10-18T11:58:14.647Z,9.27
2022-10-18T12:00:52.461Z,11.50
2022-10-18T12:03:31.556Z,6.68
2022-10-18T12:06:07.815Z,8.40
2022-10-18T12:08:41.404Z,9.63
2022-10-18T12:11:17.007Z,8.75
2022-10-18T12:13:51.120Z,9.67
2022-10-18T12:16:45.538Z,9.88
2022-10-18T12:19:25.148Z,9.68
2022-10-18T12:21:59.163Z,11.27
2022-10-18T12:24:32.918Z,7.65
2022-10-18T12:27:03.424Z,9.33
2022-10-18T12:29:42.090Z,7.60
2022-10-18T12:32:19.584Z,6.00
2022-10-18T12:34:53.535Z,10.68
2022-10-18T12:37:55.655Z,7.68
2022-10-18T12:40:30.130Z,7.57
2022-10-18T12:42:58.894Z,8.45
2022-10-18T12:45:33.505Z,7.82
2022-10-18T12:48:08.416Z,13.57
2022-10-18T12:50:40.739Z,11.88
2022-10-18T12:53:20.547Z,6.37
2022-10-18T12:55:52.737Z,5.55
2022-10-18T12:58:32.705Z,9.73
2022-10-18T13:01:08.445Z,9.10
2022-10-18T13:04:01.103Z,8.85
2022-10-18T13:07:18.694Z,8.03
2022-10-18T13:10:41.709Z,9.70
2022-10-18T13:13:44.114Z,7.82
2022-10-18T13:16:34.070Z,8.52
2022-10-18T13:19:24.824Z,5.75
2022-10-18T13:22:14.422Z,5.70
2022-10-18T13:24:55.281Z,9.48
2022-10-18T13:27:37.822Z,5.85
2022-10-18T13:30:33.947Z,5.72
2022-10-18T13:33:32.678Z,8.93
2022-10-18T13:36:05.268Z,5.20
2022-10-18T13:38:51.108Z,7.28
2022-10-18T13:44:30.554Z,7.78
2022-10-18T13:47:37.364Z,6.30
2022-10-18T13:50:36.784Z,5.83
2022-10-18T13:53:41.051Z,9.98
2022-10-18T13:56:33.738Z,8.73
2022-10-18T13:59:47.271Z,9.00
2022-10-18T14:02:58.691Z,6.38
2022-10-18T14:05:52.980Z,6.97
2022-10-18T14:08:30.386Z,6.53
2022-10-18T14:11:06.046Z,7.05
2022-10-18T14:13:48.197Z,7.65
2022-10-18T14:16:33.146Z,11.52
2022-10-18T14:19:14.843Z,5.30
2022-10-18T14:21:54.398Z,6.90
2022-10-18T14:24:28.542Z,5.30
2022-10-18T14:27:20.392Z,7.60
2022-10-18T14:29:50.763Z,7.60
2022-10-18T14:32:29.214Z,8.03
2022-10-18T14:35:27.158Z,6.40
2022-10-18T14:37:50.296Z,5.75
2022-10-18T14:40:35.036Z,6.32
2022-10-18T14:43:06.541Z,6.03
2022-10-18T14:45:35.048Z,6.17
2022-10-18T14:48:21.723Z,6.57
2022-10-18T14:50:59.293Z,8.52
2022-10-18T14:53:36.240Z,7.25
2022-10-18T14:56:08.728Z,7.63
2022-10-18T14:58:38.848Z,7.57
2022-10-18T15:01:07.675Z,7.03
2022-10-18T15:03:37.287Z,6.90
2022-10-18T15:06:08.579Z,7.47
2022-10-18T15:08:40.959Z,6.15
2022-10-18T15:11:14.335Z,8.67
2022-10-18T15:13:51.705Z,9.90
2022-10-18T15:16:22.462Z,8.90
2022-10-18T15:19:07.884Z,6.07
2022-10-18T15:21:37.455Z,6.35
2022-10-18T15:24:29.801Z,6.10
2022-10-18T15:27:10.581Z,6.13
2022-10-18T15:29:39.239Z,6.55
2022-10-18T15:32:19.236Z,8.68
2022-10-18T15:34:47.933Z,9.18
2022-10-18T15:37:26.283Z,8.03
2022-10-18T15:40:34.072Z,10.27
2022-10-18T15:43:07.298Z,8.15
2022-10-18T15:48:25.748Z,7.35
2022-10-18T15:50:57.123Z,8.43
2022-10-18T15:53:35.770Z,8.82
2022-10-18T15:56:08.603Z,6.55
2022-10-18T15:58:45.308Z,10.00
2022-10-18T16:01:21.140Z,9.93
2022-10-18T16:06:21.198Z,16.83
2022-10-18T16:08:52.258Z,14.55
2022-10-18T16:11:23.321Z,10.40
2022-10-18T16:13:57.804Z,9.95
2022-10-18T16:16:30.742Z,8.73
2022-10-18T16:18:59.426Z,10.30
2022-10-18T16:21:31.555Z,11.32
2022-10-18T16:24:00.595Z,9.07
2022-10-18T16:26:30.680Z,14.73
2022-10-18T16:29:01.932Z,17.10
2022-10-18T16:31:33.839Z,12.07
2022-10-18T16:34:03.398Z,11.63
2022-10-18T16:36:34.663Z,12.88
2022-10-18T16:39:07.920Z,5.80
2022-10-18T16:41:36.396Z,11.73
2022-10-18T16:44:06.595Z,9.68
2022-10-18T16:46:36.701Z,8.80
2022-10-18T16:49:06.138Z,9.32
2022-10-18T16:51:34.812Z,11.75
2022-10-18T16:54:03.246Z,13.03
2022-10-18T16:56:34.668Z,8.95
2022-10-18T16:59:04.984Z,14.73
2022-10-18T17:01:33.528Z,7.70
2022-10-18T17:04:01.979Z,10.77
2022-10-18T17:06:34.575Z,10.43
2022-10-18T17:09:03.042Z,10.40
2022-10-18T17:11:31.736Z,10.45
2022-10-18T17:14:00.176Z,10.40
2022-10-18T17:16:33.052Z,14.13
2022-10-18T17:19:04.611Z,9.17
2022-10-18T17:21:34.568Z,9.15
2022-10-18T17:24:05.898Z,9.02
2022-10-18T17:26:35.715Z,10.05
2022-10-18T17:29:08.199Z,9.70
2022-10-18T17:31:38.253Z,10.33
2022-10-18T17:34:06.753Z,10.65
2022-10-18T17:36:35.524Z,8.20
2022-10-18T17:39:05.056Z,6.82
2022-10-18T17:41:33.522Z,10.60
2022-10-18T17:44:04.140Z,12.93
2022-10-18T17:46:33.008Z,9.63
2022-10-18T17:49:03.545Z,9.00
2022-10-18T17:51:32.149Z,10.95
2022-10-18T17:54:00.654Z,11.88
2022-10-18T17:56:33.700Z,7.63
2022-10-18T17:59:02.798Z,15.20
2022-10-18T18:01:31.362Z,7.82
2022-10-18T18:04:02.968Z,6.10
2022-10-18T18:06:34.871Z,11.27
2022-10-18T18:09:08.644Z,15.37
2022-10-18T18:11:39.700Z,8.75
2022-10-18T18:14:10.016Z,12.13
2022-10-18T18:16:41.067Z,7.70
2022-10-18T18:19:11.894Z,12.93
2022-10-18T18:21:42.344Z,7.27
2022-10-18T18:24:11.271Z,9.88
2022-10-18T18:26:41.352Z,7.80
2022-10-18T18:29:09.937Z,11.73
2022-10-18T18:31:40.308Z,11.77
2022-10-18T18:34:13.519Z,11.33
2022-10-18T18:36:43.147Z,9.25
2022-10-18T18:39:21.350Z,12.43
2022-10-18T18:41:51.173Z,10.18
2022-10-18T18:44:21.649Z,7.05
2022-10-18T18:46:50.741Z,6.57
2022-10-18T18:49:20.760Z,9.18
2022-10-18T18:51:49.207Z,8.98
2022-10-18T18:54:17.765Z,9.73
2022-10-18T18:56:46.361Z,14.38
2022-10-18T18:59:16.393Z,17.00
2022-10-18T19:01:45.579Z,8.93
2022-10-18T19:04:14.263Z,10.30
2022-10-18T19:06:46.397Z,11.75
2022-10-18T19:09:21.680Z,11.32
2022-10-18T19:11:53.481Z,10.47
2022-10-18T19:14:24.161Z,11.57
2022-10-18T19:16:55.694Z,10.32
2022-10-18T19:19:26.670Z,9.98
2022-10-18T19:21:59.284Z,14.38
2022-10-18T19:24:31.095Z,9.83
2022-10-18T19:27:02.396Z,11.55
2022-10-18T19:29:33.322Z,15.82
2022-10-18T19:32:05.017Z,9.93
2022-10-18T19:34:34.884Z,12.15
2022-10-18T19:37:05.657Z,10.57
2022-10-18T19:39:36.144Z,11.80
2022-10-18T19:42:09.085Z,15.75
2022-10-18T19:44:38.326Z,12.52
2022-10-18T19:47:08.992Z,11.40
2022-10-18T19:49:37.516Z,10.40
2022-10-18T19:52:07.364Z,10.57
2022-10-18T19:54:36.448Z,11.05
2022-10-18T19:57:05.252Z,10.93
2022-10-18T19:59:37.209Z,15.73
2022-10-18T20:02:05.785Z,12.73
2022-10-18T20:04:35.207Z,14.85
2022-10-18T20:07:04.012Z,14.70
2022-10-18T20:09:34.075Z,13.27
2022-10-18T20:12:02.812Z,11.25
2022-10-18T20:14:31.247Z,9.33
2022-10-18T20:17:02.226Z,11.15
2022-10-18T20:19:30.862Z,9.63
2022-10-18T20:21:59.324Z,9.60
2022-10-18T20:24:28.475Z,8.48
2022-10-18T20:26:58.299Z,10.70
2022-10-18T20:29:26.795Z,9.40
2022-10-18T20:31:56.661Z,11.73
2022-10-18T20:34:28.576Z,10.68
2022-10-18T20:36:57.549Z,10.07
2022-10-18T20:39:26.330Z,10.67
2022-10-18T20:41:54.777Z,9.80
2022-10-18T20:44:26.940Z,9.15
2022-10-18T20:46:55.407Z,7.78
2022-10-18T20:49:23.843Z,9.07
2022-10-18T20:51:54.768Z,9.47
2022-10-18T20:54:23.408Z,9.23
2022-10-18T20:56:52.335Z,12.68
2022-10-18T20:59:20.778Z,9.60
2022-10-18T21:01:50.710Z,10.27
2022-10-18T21:04:19.225Z,11.33
2022-10-18T21:06:47.906Z,8.90
2022-10-18T21:09:19.674Z,10.68
2022-10-18T21:11:50.884Z,9.77
2022-10-18T21:14:22.227Z,11.13
2022-10-18T21:16:53.740Z,9.97
2022-10-18T21:19:25.254Z,11.75
2022-10-18T21:21:58.449Z,11.48
2022-10-18T21:24:28.297Z,12.90
2022-10-18T21:26:57.184Z,10.88
2022-10-18T21:29:25.742Z,8.93
2022-10-18T21:31:59.271Z,12.07
2022-10-18T21:34:27.900Z,10.40
2022-10-18T21:36:56.625Z,10.43
2022-10-18T21:39:25.723Z,12.27
2022-10-18T21:41:54.216Z,12.27
2022-10-18T21:44:23.056Z,10.48
2022-10-18T21:46:51.806Z,14.07
2022-10-18T21:49:24.961Z,11.77
2022-10-18T21:51:53.722Z,10.25
2022-10-18T21:54:22.320Z,11.53
2022-10-18T21:56:51.185Z,12.63
2022-10-18T21:59:19.887Z,12.63
2022-10-18T22:01:48.392Z,12.85
2022-10-18T22:04:23.929Z,16.58
2022-10-18T22:06:52.915Z,10.23
2022-10-18T22:09:22.408Z,14.98
2022-10-18T22:11:54.225Z,11.25
2022-10-18T22:14:23.097Z,11.52
2022-10-18T22:16:52.196Z,12.02
2022-10-18T22:19:22.424Z,12.60
2022-10-18T22:21:51.235Z,11.18
2022-10-18T22:24:20.451Z,12.77
2022-10-18T22:26:50.086Z,16.95
2022-10-18T22:29:21.363Z,13.05
2022-10-18T22:31:52.586Z,13.60
2022-10-18T22:34:27.746Z,12.85
2022-10-18T22:36:57.091Z,17.23
2022-10-18T22:39:25.758Z,16.40
2022-10-18T22:41:56.401Z,14.90
2022-10-18T22:44:25.625Z,14.53
2022-10-18T22:46:54.174Z,19.75
2022-10-18T22:49:24.027Z,19.15
2022-10-18T22:51:52.844Z,17.60
2022-10-18T22:54:21.356Z,17.00
2022-10-18T22:56:50.463Z,22.33
2022-10-18T22:59:19.070Z,14.93
2022-10-18T23:01:47.554Z,30.73
2022-10-18T23:04:16.077Z,29.20
2022-10-18T23:06:45.895Z,50.90
2022-10-18T23:09:14.570Z,23.77
2022-10-18T23:11:43.019Z,27.88
2022-10-18T23:14:12.093Z,28.38
2022-10-18T23:16:40.838Z,26.30
2022-10-18T23:19:09.343Z,29.52
2022-10-18T23:21:37.798Z,42.47
2022-10-18T23:24:07.864Z,34.47
2022-10-18T23:26:36.531Z,36.45
2022-10-18T23:29:05.234Z,27.67
2022-10-18T23:31:35.510Z,49.92
2022-10-18T23:34:06.519Z,54.37
2022-10-18T23:36:35.733Z,55.10
2022-10-18T23:39:06.267Z,36.58
2022-10-18T23:41:36.567Z,24.60
2022-10-18T23:44:05.438Z,36.38
2022-10-18T23:46:34.228Z,52.30
2022-10-18T23:49:02.747Z,29.17
2022-10-18T23:51:31.232Z,36.55
2022-10-18T23:53:59.711Z,34.15
2022-10-18T23:56:28.222Z,43.78
2022-10-18T23:58:58.267Z,48.13
